createdAt,value
2023-03-02T00:00:16.189Z,100785.16
2023-03-02T00:02:49.973Z,100782.72
2023-03-02T00:05:18.812Z,100776.69
2023-03-02T00:07:47.231Z,100780.78
2023-03-02T00:10:15.718Z,100770.53
2023-03-02T00:12:45.886Z,100775.53
2023-03-02T00:15:16.658Z,100779.78
2023-03-02T00:17:45.042Z,100778.88
2023-03-02T00:20:14.437Z,100778.88
2023-03-02T00:22:45.139Z,100771.97
2023-03-02T00:25:15.498Z,100772.72
2023-03-02T00:27:46.063Z,100775.06
2023-03-02T00:30:16.284Z,100773.00
2023-03-02T00:32:45.749Z,100764.31
2023-03-02T00:35:14.161Z,100775.56
2023-03-02T00:37:42.621Z,100758.91
2023-03-02T00:40:13.041Z,100754.56
2023-03-02T00:42:42.416Z,100762.25
2023-03-02T00:45:12.899Z,100758.91
2023-03-02T00:47:42.479Z,100753.94
2023-03-02T00:50:12.193Z,100759.19
2023-03-02T00:52:40.870Z,100764.53
2023-03-02T00:55:10.278Z,100765.56
2023-03-02T00:57:38.640Z,100759.69
2023-03-02T01:00:10.105Z,100759.69
2023-03-02T01:02:44.188Z,100756.97
2023-03-02T01:05:16.530Z,100764.81
2023-03-02T01:07:45.960Z,100766.34
2023-03-02T01:10:15.980Z,100761.97
2023-03-02T01:12:44.489Z,100762.75
2023-03-02T01:15:13.335Z,100766.22
2023-03-02T01:17:44.009Z,100758.28
2023-03-02T01:20:14.460Z,100758.91
2023-03-02T01:22:44.866Z,100757.88
2023-03-02T01:25:14.224Z,100748.16
2023-03-02T01:27:43.476Z,100750.50
2023-03-02T01:30:13.814Z,100752.81
2023-03-02T01:32:43.614Z,100757.69
2023-03-02T01:35:12.262Z,100752.97
2023-03-02T01:37:40.653Z,100751.81
2023-03-02T01:40:11.695Z,100760.03
2023-03-02T01:42:48.005Z,100757.22
2023-03-02T01:45:53.775Z,100755.13
2023-03-02T01:48:48.790Z,100758.97
2023-03-02T01:51:25.634Z,100760.41
2023-03-02T01:54:01.602Z,100755.16
2023-03-02T01:56:36.161Z,100756.06
2023-03-02T01:59:10.343Z,100756.06
2023-03-02T02:01:42.902Z,100750.78
2023-03-02T02:04:13.515Z,100746.44
2023-03-02T02:06:46.144Z,100746.34
2023-03-02T02:09:18.580Z,100743.63
2023-03-02T02:11:47.953Z,100735.19
2023-03-02T02:14:16.878Z,100735.19
2023-03-02T02:16:45.507Z,100730.81
2023-03-02T02:19:31.339Z,100740.53
2023-03-02T02:22:00.232Z,100732.75
2023-03-02T02:24:37.343Z,100733.75
2023-03-02T02:27:07.278Z,100732.75
2023-03-02T02:29:45.585Z,100727.22
2023-03-02T02:32:18.646Z,100729.69
2023-03-02T02:34:53.487Z,100725.19
2023-03-02T02:37:26.984Z,100726.22
2023-03-02T02:39:57.154Z,100710.72
2023-03-02T02:42:31.349Z,100711.63
2023-03-02T02:45:03.725Z,100715.84
2023-03-02T02:47:33.104Z,100706.50
2023-03-02T02:50:02.816Z,100700.47
2023-03-02T02:52:31.368Z,100709.97
2023-03-02T02:55:00.275Z,100712.53
2023-03-02T02:57:31.965Z,100702.28
2023-03-02T03:00:02.009Z,100697.78
2023-03-02T03:02:38.871Z,100719.19
2023-03-02T03:05:11.258Z,100711.34
2023-03-02T03:07:39.689Z,100711.88
2023-03-02T03:10:16.112Z,100712.66
2023-03-02T03:12:48.294Z,100708.44
2023-03-02T03:15:17.335Z,100703.16
2023-03-02T03:17:49.976Z,100702.41
2023-03-02T03:20:19.420Z,100703.31
2023-03-02T03:22:47.822Z,100704.97
2023-03-02T03:25:16.672Z,100699.06
2023-03-02T03:27:50.399Z,100697.28
2023-03-02T03:30:20.339Z,100702.03
2023-03-02T03:32:48.755Z,100696.69
2023-03-02T03:35:18.442Z,100701.66
2023-03-02T03:37:48.460Z,100692.19
2023-03-02T03:40:17.773Z,100698.84
2023-03-02T03:42:49.027Z,100692.72
2023-03-02T03:45:18.252Z,100701.16
2023-03-02T03:47:46.872Z,100700.03
2023-03-02T03:50:15.721Z,100694.63
2023-03-02T03:52:45.170Z,100702.97
2023-03-02T03:55:20.297Z,100698.25
2023-03-02T03:57:52.173Z,100710.78
2023-03-02T04:00:21.754Z,100712.94
2023-03-02T04:02:56.673Z,100718.59
2023-03-02T04:05:28.273Z,100713.97
2023-03-02T04:07:59.193Z,100708.59
2023-03-02T04:10:27.692Z,100702.59
2023-03-02T04:12:58.063Z,100711.69
2023-03-02T04:15:27.843Z,100708.09
2023-03-02T04:17:57.674Z,100711.69
2023-03-02T04:20:28.053Z,100705.00
2023-03-02T04:22:58.466Z,100715.25
2023-03-02T04:25:30.230Z,100719.75
2023-03-02T04:28:09.391Z,100710.41
2023-03-02T04:30:40.476Z,100707.19
2023-03-02T04:33:09.248Z,100711.41
2023-03-02T04:35:38.119Z,100713.97
2023-03-02T04:38:06.601Z,100713.06
2023-03-02T04:40:35.533Z,100714.88
2023-03-02T04:43:03.994Z,100715.75
2023-03-02T04:45:33.916Z,100705.38
2023-03-02T04:48:02.368Z,100704.38
2023-03-02T04:50:30.822Z,100707.84
2023-03-02T04:52:59.308Z,100706.06
2023-03-02T04:55:29.093Z,100712.81
2023-03-02T04:57:57.533Z,100703.22
2023-03-02T05:00:28.821Z,100702.97
2023-03-02T05:02:59.826Z,100704.50
2023-03-02T05:05:29.229Z,100710.50
2023-03-02T05:07:58.479Z,100709.50
2023-03-02T05:10:28.882Z,100705.91
2023-03-02T05:13:02.238Z,100705.00
2023-03-02T05:15:34.835Z,100697.84
2023-03-02T05:18:06.899Z,100703.72
2023-03-02T05:20:35.735Z,100697.72
2023-03-02T05:23:07.083Z,100702.19
2023-03-02T05:25:38.560Z,100700.78
2023-03-02T05:28:07.370Z,100708.72
2023-03-02T05:30:37.665Z,100702.84
2023-03-02T05:33:07.797Z,100695.03
2023-03-02T05:35:36.647Z,100700.28
2023-03-02T05:38:05.261Z,100693.50
2023-03-02T05:40:34.206Z,100700.41
2023-03-02T05:43:02.857Z,100697.84
2023-03-02T05:45:37.430Z,100694.41
2023-03-02T05:48:08.819Z,100701.19
2023-03-02T05:50:37.258Z,100701.84
2023-03-02T05:53:06.414Z,100701.69
2023-03-02T05:55:37.236Z,100697.34
2023-03-02T05:58:06.158Z,100692.22
2023-03-02T06:00:34.589Z,100695.69
2023-03-02T06:03:03.409Z,100692.84
2023-03-02T06:05:33.448Z,100695.41
2023-03-02T06:08:01.814Z,100700.66
2023-03-02T06:10:30.532Z,100705.63
2023-03-02T06:12:59.209Z,100708.19
2023-03-02T06:15:29.634Z,100707.56
2023-03-02T06:17:58.252Z,100707.28
2023-03-02T06:20:27.768Z,100701.94
2023-03-02T06:22:58.365Z,100711.13
2023-03-02T06:25:28.044Z,100706.81
2023-03-02T06:27:56.383Z,100713.31
2023-03-02T06:30:27.983Z,100709.75
2023-03-02T06:32:56.571Z,100712.94
2023-03-02T06:35:24.986Z,100715.50
2023-03-02T06:37:53.471Z,100715.34
2023-03-02T06:40:23.364Z,100716.09
2023-03-02T06:42:51.778Z,100720.34
2023-03-02T06:45:20.439Z,100723.69
2023-03-02T06:47:48.778Z,100722.03
2023-03-02T06:50:17.406Z,100718.56
2023-03-02T06:52:46.008Z,100727.00
2023-03-02T06:55:14.571Z,100720.09
2023-03-02T06:57:44.310Z,100730.94
2023-03-02T07:00:17.297Z,100738.59
2023-03-02T07:02:46.153Z,100735.03
2023-03-02T07:05:14.871Z,100738.34
2023-03-02T07:07:43.482Z,100734.91
2023-03-02T07:10:13.525Z,100729.66
2023-03-02T07:12:43.700Z,100732.34
2023-03-02T07:15:14.283Z,100726.47
2023-03-02T07:17:44.389Z,100729.94
2023-03-02T07:20:15.453Z,100733.63
2023-03-02T07:22:44.289Z,100730.31
2023-03-02T07:25:13.176Z,100729.69
2023-03-02T07:27:43.795Z,100732.25
2023-03-02T07:30:14.844Z,100732.13
2023-03-02T07:32:43.492Z,100729.41
2023-03-02T07:35:11.958Z,100732.88
2023-03-02T07:37:40.844Z,100736.19
2023-03-02T07:40:12.024Z,100739.50
2023-03-02T07:42:40.716Z,100737.75
2023-03-02T07:45:13.130Z,100733.63
2023-03-02T07:47:41.608Z,100741.31
2023-03-02T07:50:12.037Z,100742.47
2023-03-02T07:52:40.654Z,100738.50
2023-03-02T07:55:10.512Z,100740.31
2023-03-02T07:57:38.928Z,100744.53
2023-03-02T08:00:11.354Z,100737.63
2023-03-02T08:02:43.528Z,100736.31
2023-03-02T08:05:13.610Z,100743.09
2023-03-02T08:07:42.314Z,100741.59
2023-03-02T08:10:12.732Z,100738.50
2023-03-02T08:12:42.853Z,100745.66
2023-03-02T08:15:13.786Z,100744.16
2023-03-02T08:17:42.433Z,100737.25
2023-03-02T08:20:11.961Z,100745.66
2023-03-02T08:22:40.787Z,100731.88
2023-03-02T08:25:09.685Z,100740.56
2023-03-02T08:27:40.194Z,100743.41
2023-03-02T08:30:10.896Z,100734.16
2023-03-02T08:32:41.696Z,100729.31
2023-03-02T08:35:10.786Z,100733.16
2023-03-02T08:37:39.165Z,100724.97
2023-03-02T08:40:09.287Z,100728.03
2023-03-02T08:42:37.658Z,100725.09
2023-03-02T08:45:07.677Z,100728.31
2023-03-02T08:47:36.059Z,100728.81
2023-03-02T08:50:06.678Z,100732.53
2023-03-02T08:52:35.188Z,100715.78
2023-03-02T08:55:04.254Z,100720.38
2023-03-02T08:57:34.662Z,100709.59
2023-03-02T09:00:03.667Z,100723.69
2023-03-02T09:02:32.107Z,100717.41
2023-03-02T09:05:00.500Z,100717.78
2023-03-02T09:07:30.591Z,100713.03
2023-03-02T09:09:59.004Z,100712.38
2023-03-02T09:12:27.423Z,100715.22
2023-03-02T09:14:55.866Z,100704.31
2023-03-02T09:17:24.258Z,100697.66
2023-03-02T09:19:54.627Z,100702.13
2023-03-02T09:22:22.962Z,100709.31
2023-03-02T09:24:53.199Z,100703.63
2023-03-02T09:27:21.685Z,100698.00
2023-03-02T09:29:49.978Z,100698.28
2023-03-02T09:32:18.553Z,100696.09
2023-03-02T09:34:47.158Z,100697.22
2023-03-02T09:37:15.615Z,100691.47
2023-03-02T09:39:44.004Z,100694.50
2023-03-02T09:42:43.200Z,100692.31
2023-03-02T09:45:36.781Z,100691.63
2023-03-02T09:48:19.041Z,100695.38
2023-03-02T09:50:57.470Z,100692.38
2023-03-02T09:53:45.352Z,100693.00
2023-03-02T09:56:18.018Z,100692.47
2023-03-02T09:58:55.148Z,100700.88
2023-03-02T10:01:38.622Z,100694.44
2023-03-02T10:04:23.668Z,100687.97
2023-03-02T10:06:59.676Z,100687.34
2023-03-02T10:09:28.133Z,100685.91
2023-03-02T10:12:19.226Z,100687.41
2023-03-02T10:14:57.800Z,100687.63
2023-03-02T10:17:51.844Z,100693.34
2023-03-02T10:20:34.154Z,100679.06
2023-03-02T10:23:22.877Z,100689.06
2023-03-02T10:26:01.025Z,100687.72
2023-03-02T10:28:36.838Z,100684.66
2023-03-02T10:31:11.918Z,100683.31
2023-03-02T10:33:42.855Z,100684.22
2023-03-02T10:36:23.997Z,100677.75
2023-03-02T10:38:53.100Z,100681.69
2023-03-02T10:41:27.974Z,100673.75
2023-03-02T10:44:01.860Z,100675.25
2023-03-02T10:46:42.187Z,100670.66
2023-03-02T10:49:28.537Z,100670.50
2023-03-02T10:52:00.405Z,100667.50
2023-03-02T10:54:30.704Z,100679.22
2023-03-02T10:57:02.131Z,100681.25
2023-03-02T10:59:48.838Z,100675.44
2023-03-02T11:02:23.388Z,100668.19
2023-03-02T11:04:57.948Z,100681.47
2023-03-02T11:07:28.799Z,100671.53
2023-03-02T11:10:03.185Z,100667.59
2023-03-02T11:12:33.730Z,100670.53
2023-03-02T11:15:23.110Z,100674.09
2023-03-02T11:18:01.293Z,100658.00
2023-03-02T11:20:35.807Z,100670.41
2023-03-02T11:23:18.861Z,100668.19
2023-03-02T11:25:54.469Z,100673.63
2023-03-02T11:28:48.591Z,100668.81
2023-03-02T11:31:29.990Z,100671.75
2023-03-02T11:34:17.683Z,100664.25
2023-03-02T11:36:59.423Z,100662.69
2023-03-02T11:39:41.065Z,100657.09
2023-03-02T11:42:20.845Z,100649.88
2023-03-02T11:44:50.343Z,100654.81
2023-03-02T11:47:19.981Z,100652.78
2023-03-02T11:49:55.508Z,100643.69
2023-03-02T11:52:27.854Z,100632.94
2023-03-02T11:55:02.190Z,100634.16
2023-03-02T11:57:35.212Z,100626.06
2023-03-02T12:00:05.814Z,100628.88
2023-03-02T12:02:40.760Z,100625.81
2023-03-02T12:05:27.274Z,100622.66
2023-03-02T12:08:00.983Z,100617.03
2023-03-02T12:10:37.357Z,100613.91
2023-03-02T12:13:17.062Z,100628.75
2023-03-02T12:15:47.331Z,100620.38
2023-03-02T12:18:45.342Z,100611.94
2023-03-02T12:21:18.531Z,100606.19
2023-03-02T12:24:00.638Z,100609.19
2023-03-02T12:26:36.645Z,100595.63
2023-03-02T12:29:24.830Z,100595.75
2023-03-02T12:31:56.513Z,100592.47
2023-03-02T12:34:38.343Z,100600.47
2023-03-02T12:37:18.633Z,100587.81
2023-03-02T12:40:26.416Z,100586.34
2023-03-02T12:43:31.317Z,100583.97
2023-03-02T12:46:28.704Z,100573.97
2023-03-02T12:49:27.152Z,100577.84
2023-03-02T12:51:58.095Z,100572.88
2023-03-02T12:54:30.487Z,100574.94
2023-03-02T12:57:13.920Z,100576.38
2023-03-02T12:59:43.082Z,100568.03
2023-03-02T13:02:19.055Z,100566.84
2023-03-02T13:04:56.171Z,100556.94
2023-03-02T13:07:28.981Z,100553.13
2023-03-02T13:10:00.525Z,100545.69
2023-03-02T13:12:30.076Z,100546.00
2023-03-02T13:15:00.661Z,100546.31
2023-03-02T13:17:31.295Z,100537.16
2023-03-02T13:20:01.740Z,100539.84
2023-03-02T13:22:30.706Z,100530.44
2023-03-02T13:25:02.366Z,100536.66
2023-03-02T13:27:33.851Z,100522.34
2023-03-02T13:30:12.615Z,100526.22
2023-03-02T13:32:43.952Z,100528.28
2023-03-02T13:35:26.788Z,100524.28
2023-03-02T13:38:02.899Z,100519.59
2023-03-02T13:40:55.470Z,100532.97
2023-03-02T13:43:39.000Z,100517.69
2023-03-02T13:46:28.657Z,100522.03
2023-03-02T13:49:14.483Z,100522.03
2023-03-02T13:51:46.798Z,100520.53
2023-03-02T13:54:23.461Z,100509.50
2023-03-02T13:56:54.565Z,100500.94
2023-03-02T13:59:23.706Z,100504.69
2023-03-02T14:01:52.362Z,100502.47
2023-03-02T14:04:23.959Z,100506.25
2023-03-02T14:06:53.996Z,100505.63
2023-03-02T14:09:23.203Z,100485.13
2023-03-02T14:11:55.645Z,100487.13
2023-03-02T14:14:27.616Z,100489.06
2023-03-02T14:16:56.140Z,100491.13
2023-03-02T14:19:24.463Z,100493.16
2023-03-02T14:21:52.833Z,100489.94
2023-03-02T14:24:21.267Z,100478.13
2023-03-02T14:26:52.144Z,100486.06
2023-03-02T14:29:26.906Z,100474.03
2023-03-02T14:31:56.573Z,100485.28
2023-03-02T14:34:25.038Z,100483.59
2023-03-02T14:36:56.427Z,100477.63
2023-03-02T14:39:34.464Z,100472.44
2023-03-02T14:42:05.378Z,100475.03
2023-03-02T14:44:34.164Z,100469.88
2023-03-02T14:47:02.508Z,100467.28
2023-03-02T14:49:30.907Z,100466.44
2023-03-02T14:52:05.636Z,100453.63
2023-03-02T14:54:40.803Z,100458.81
2023-03-02T14:57:20.139Z,100450.94
2023-03-02T14:59:48.503Z,100462.13
2023-03-02T15:02:25.222Z,100456.84
2023-03-02T15:04:56.937Z,100437.63
2023-03-02T15:07:28.361Z,100460.91
2023-03-02T15:09:57.600Z,100455.66
2023-03-02T15:12:27.819Z,100457.44
2023-03-02T15:14:56.159Z,100450.50
2023-03-02T15:17:24.696Z,100449.75
2023-03-02T15:19:53.279Z,100447.19
2023-03-02T15:22:21.701Z,100438.75
2023-03-02T15:24:50.241Z,100449.19
2023-03-02T15:27:18.713Z,100438.88
2023-03-02T15:29:48.874Z,100444.19
2023-03-02T15:32:18.158Z,100452.75
2023-03-02T15:34:48.498Z,100454.38
2023-03-02T15:37:17.229Z,100454.13
2023-03-02T15:39:45.600Z,100452.28
2023-03-02T15:42:14.220Z,100441.84
2023-03-02T15:44:43.059Z,100452.97
2023-03-02T15:47:12.767Z,100446.81
2023-03-02T15:49:41.213Z,100447.47
2023-03-02T15:52:10.993Z,100444.72
2023-03-02T15:54:39.868Z,100446.13
2023-03-02T15:57:10.114Z,100450.22
2023-03-02T15:59:38.715Z,100456.13
2023-03-02T16:02:07.092Z,100452.53
2023-03-02T16:04:37.029Z,100456.72
2023-03-02T16:07:05.881Z,100453.97
2023-03-02T16:09:34.251Z,100462.34
2023-03-02T16:12:02.715Z,100457.00
2023-03-02T16:14:31.111Z,100462.69
2023-03-02T16:16:59.437Z,100467.69
2023-03-02T16:19:27.826Z,100469.25
2023-03-02T16:21:57.622Z,100473.38
2023-03-02T16:24:26.552Z,100473.00
2023-03-02T16:26:55.225Z,100469.22
2023-03-02T16:29:24.618Z,100472.44
2023-03-02T16:31:53.298Z,100477.41
2023-03-02T16:34:22.049Z,100471.16
2023-03-02T16:36:50.907Z,100477.03
2023-03-02T16:39:20.656Z,100483.78
2023-03-02T16:41:49.410Z,100479.25
2023-03-02T16:44:18.242Z,100476.47
2023-03-02T16:46:47.216Z,100476.19
2023-03-02T16:49:17.053Z,100489.00
2023-03-02T16:51:45.540Z,100492.19
2023-03-02T16:54:17.908Z,100490.41
2023-03-02T16:56:47.821Z,100495.28
2023-03-02T16:59:16.529Z,100494.31
2023-03-02T17:01:45.100Z,100490.75
2023-03-02T17:04:13.733Z,100496.78
2023-03-02T17:06:59.976Z,100505.31
2023-03-02T17:09:29.230Z,100491.34
2023-03-02T17:11:59.237Z,100506.72
2023-03-02T17:14:28.166Z,100504.16
2023-03-02T17:16:57.830Z,100507.53
2023-03-02T17:19:29.423Z,100507.53
2023-03-02T17:21:58.945Z,100517.84
2023-03-02T17:24:28.450Z,100521.88
2023-03-02T17:26:58.605Z,100527.72
2023-03-02T17:29:27.089Z,100531.88
2023-03-02T17:31:55.859Z,100530.91
2023-03-02T17:34:24.337Z,100527.56
2023-03-02T17:36:52.697Z,100537.66
2023-03-02T17:39:21.223Z,100535.69
2023-03-02T17:41:49.606Z,100539.16
2023-03-02T17:44:19.512Z,100536.47
2023-03-02T17:46:48.035Z,100542.41
2023-03-02T17:49:16.517Z,100558.78
2023-03-02T17:51:44.944Z,100563.84
2023-03-02T17:54:13.310Z,100560.38
2023-03-02T17:56:42.117Z,100563.84
2023-03-02T17:59:11.596Z,100569.81
2023-03-02T18:01:43.416Z,100574.97
2023-03-02T18:04:12.017Z,100578.91
2023-03-02T18:06:40.720Z,100583.78
2023-03-02T18:09:09.464Z,100592.13
2023-03-02T18:11:37.995Z,100596.97
2023-03-02T18:14:06.436Z,100595.09
2023-03-02T18:16:35.527Z,100599.94
2023-03-02T18:19:05.631Z,100592.88
2023-03-02T18:21:34.548Z,100603.91
2023-03-02T18:24:03.401Z,100603.00
2023-03-02T18:26:31.847Z,100609.84
2023-03-02T18:29:00.299Z,100616.50
2023-03-02T18:31:31.288Z,100619.44
2023-03-02T18:33:59.971Z,100621.81
2023-03-02T18:36:30.769Z,100621.31
2023-03-02T18:38:59.192Z,100620.91
2023-03-02T18:41:27.574Z,100627.44
2023-03-02T18:43:56.017Z,100630.56
2023-03-02T18:46:30.613Z,100633.97
2023-03-02T18:49:01.554Z,100642.25
2023-03-02T18:51:31.708Z,100643.84
2023-03-02T18:54:00.356Z,100651.56
2023-03-02T18:56:28.937Z,100659.84
2023-03-02T18:58:57.283Z,100660.44
2023-03-02T19:01:25.664Z,100660.03
2023-03-02T19:03:56.847Z,100664.19
2023-03-02T19:06:25.496Z,100664.19
2023-03-02T19:08:55.811Z,100672.41
2023-03-02T19:11:24.361Z,100665.91
2023-03-02T19:13:52.946Z,100669.59
2023-03-02T19:16:21.640Z,100679.69
2023-03-02T19:18:50.180Z,100676.88
2023-03-02T19:21:18.750Z,100666.16
2023-03-02T19:23:47.587Z,100675.34
2023-03-02T19:26:17.423Z,100669.97
2023-03-02T19:28:45.941Z,100671.69
2023-03-02T19:31:14.868Z,100670.88
2023-03-02T19:33:46.569Z,100670.78
2023-03-02T19:36:15.489Z,100679.16
2023-03-02T19:38:44.539Z,100686.56
2023-03-02T19:41:18.557Z,100695.72
2023-03-02T19:43:47.675Z,100690.97
2023-03-02T19:46:17.433Z,100689.06
2023-03-02T19:48:46.138Z,100692.84
2023-03-02T19:51:16.140Z,100681.91
2023-03-02T19:53:45.982Z,100691.63
2023-03-02T19:56:17.400Z,100686.28
2023-03-02T19:58:50.279Z,100694.78
2023-03-02T20:01:21.521Z,100693.88
2023-03-02T20:03:51.761Z,100695.56
2023-03-02T20:06:21.671Z,100704.19
2023-03-02T20:08:53.807Z,100704.06
2023-03-02T20:11:25.117Z,100696.91
2023-03-02T20:13:53.977Z,100694.78
2023-03-02T20:16:22.952Z,100701.41
2023-03-02T20:18:52.135Z,100692.78
2023-03-02T20:21:21.220Z,100705.50
2023-03-02T20:23:50.030Z,100707.19
2023-03-02T20:26:18.606Z,100700.94
2023-03-02T20:28:49.680Z,100713.66
2023-03-02T20:31:18.447Z,100711.88
2023-03-02T20:33:50.359Z,100712.78
2023-03-02T20:36:25.121Z,100711.88
2023-03-02T20:39:00.570Z,100713.56
2023-03-02T20:41:30.190Z,100718.56
2023-03-02T20:44:00.233Z,100715.91
2023-03-02T20:46:32.871Z,100723.72
2023-03-02T20:49:01.713Z,100721.72
2023-03-02T20:51:30.838Z,100726.84
2023-03-02T20:53:59.890Z,100726.63
2023-03-02T20:56:28.361Z,100735.78
2023-03-02T20:58:57.248Z,100725.28
2023-03-02T21:01:29.919Z,100718.34
2023-03-02T21:03:58.794Z,100719.44
2023-03-02T21:06:29.505Z,100717.00
2023-03-02T21:09:00.114Z,100717.25
2023-03-02T21:11:32.128Z,100719.00
2023-03-02T21:14:01.957Z,100722.25
2023-03-02T21:16:37.941Z,100729.06
2023-03-02T21:19:08.689Z,100716.03
2023-03-02T21:21:42.171Z,100717.00
2023-03-02T21:24:11.834Z,100720.47
2023-03-02T21:26:41.522Z,100721.03
2023-03-02T21:29:11.627Z,100718.00
2023-03-02T21:31:43.774Z,100719.69
2023-03-02T21:34:13.018Z,100716.09
2023-03-02T21:36:41.958Z,100709.06
2023-03-02T21:39:11.805Z,100713.44
2023-03-02T21:41:40.529Z,100708.28
2023-03-02T21:44:09.055Z,100710.88
2023-03-02T21:46:40.496Z,100705.81
2023-03-02T21:49:09.129Z,100709.16
2023-03-02T21:51:37.539Z,100701.34
2023-03-02T21:54:06.324Z,100707.28
2023-03-02T21:56:35.497Z,100711.63
2023-03-02T21:59:04.948Z,100710.75
2023-03-02T22:01:34.158Z,100706.38
2023-03-02T22:04:04.109Z,100706.38
2023-03-02T22:06:35.660Z,100710.28
2023-03-02T22:09:05.191Z,100715.06
2023-03-02T22:11:38.370Z,100709.59
2023-03-02T22:14:14.041Z,100711.25
2023-03-02T22:16:45.182Z,100708.66
2023-03-02T22:19:27.520Z,100708.66
2023-03-02T22:21:59.876Z,100704.81
2023-03-02T22:24:30.614Z,100714.00
2023-03-02T22:27:02.189Z,100714.66
2023-03-02T22:29:34.267Z,100709.53
2023-03-02T22:32:16.455Z,100711.22
2023-03-02T22:34:48.130Z,100711.97
2023-03-02T22:37:18.888Z,100710.19
2023-03-02T22:39:48.821Z,100726.50
2023-03-02T22:42:19.813Z,100726.50
2023-03-02T22:44:52.426Z,100720.25
2023-03-02T22:47:21.816Z,100715.63
2023-03-02T22:50:00.131Z,100723.25
2023-03-02T22:52:37.264Z,100723.75
2023-03-02T22:55:30.385Z,100711.47
2023-03-02T22:57:59.039Z,100723.28
2023-03-02T23:00:36.504Z,100722.75
2023-03-02T23:03:17.521Z,100726.88
2023-03-02T23:05:51.520Z,100735.59
2023-03-02T23:08:24.141Z,100736.38
2023-03-02T23:10:57.520Z,100745.41
2023-03-02T23:13:37.510Z,100743.34
2023-03-02T23:16:16.623Z,100731.84
2023-03-02T23:18:45.673Z,100734.94
2023-03-02T23:21:20.763Z,100739.19
2023-03-02T23:23:50.182Z,100738.28
2023-03-02T23:26:19.761Z,100739.06
2023-03-02T23:28:49.884Z,100740.84
2023-03-02T23:31:19.390Z,100729.81
2023-03-02T23:33:48.118Z,100737.41
2023-03-02T23:36:21.058Z,100733.16
2023-03-02T23:38:50.907Z,100730.72
2023-03-02T23:41:19.444Z,100730.72
2023-03-02T23:43:47.911Z,100731.63
2023-03-02T23:46:16.500Z,100727.47
2023-03-02T23:48:45.158Z,100726.19
2023-03-02T23:51:13.617Z,100731.19
2023-03-02T23:53:44.000Z,100721.81
2023-03-02T23:56:12.649Z,100730.50
2023-03-02T23:58:41.606Z,100726.19
